sensor_id;sensor_type;location;lat;lon;timestamp;temperature;humidity
20829;DHT22;10575;50.124;8.582;2022-10-31T00:00:29;12.40;99.90
20829;DHT22;10575;50.124;8.582;2022-10-31T00:02:55;12.40;99.90
20829;DHT22;10575;50.124;8.582;2022-10-31T00:05:20;12.40;99.90
20829;DHT22;10575;50.124;8.582;2022-10-31T00:07:46;12.40;99.90
20829;DHT22;10575;50.124;8.582;2022-10-31T00:10:11;12.40;99.90
20829;DHT22;10575;50.124;8.582;2022-10-31T00:12:37;12.40;99.90
20829;DHT22;10575;50.124;8.582;2022-10-31T00:15:02;12.50;99.90
20829;DHT22;10575;50.124;8.582;2022-10-31T00:17:28;12.40;99.90
20829;DHT22;10575;50.124;8.582;2022-10-31T00:19:53;12.40;99.90
20829;DHT22;10575;50.124;8.582;2022-10-31T00:22:19;12.30;99.90
20829;DHT22;10575;50.124;8.582;2022-10-31T00:24:44;12.30;99.90
20829;DHT22;10575;50.124;8.582;2022-10-31T00:27:10;12.30;99.90
20829;DHT22;10575;50.124;8.582;2022-10-31T00:29:35;12.30;99.90
20829;DHT22;10575;50.124;8.582;2022-10-31T00:32:01;12.20;99.90
20829;DHT22;10575;50.124;8.582;2022-10-31T00:34:26;12.20;99.90
20829;DHT22;10575;50.124;8.582;2022-10-31T00:36:52;12.10;99.90
20829;DHT22;10575;50.124;8.582;2022-10-31T00:39:17;12.20;99.90
20829;DHT22;10575;50.124;8.582;2022-10-31T00:41:43;12.20;99.90
20829;DHT22;10575;50.124;8.582;2022-10-31T00:44:08;12.10;99.90
20829;DHT22;10575;50.124;8.582;2022-10-31T00:46:34;12.20;99.90
20829;DHT22;10575;50.124;8.582;2022-10-31T00:48:59;12.20;99.90
20829;DHT22;10575;50.124;8.582;2022-10-31T00:51:25;12.20;99.90
20829;DHT22;10575;50.124;8.582;2022-10-31T00:53:50;12.20;99.90
20829;DHT22;10575;50.124;8.582;2022-10-31T00:56:16;12.20;99.90
20829;DHT22;10575;50.124;8.582;2022-10-31T00:58:41;12.30;99.90
20829;DHT22;10575;50.124;8.582;2022-10-31T01:01:07;12.30;99.90
20829;DHT22;10575;50.124;8.582;2022-10-31T01:03:33;12.40;99.90
20829;DHT22;10575;50.124;8.582;2022-10-31T01:08:26;12.50;99.90
20829;DHT22;10575;50.124;8.582;2022-10-31T01:11:05;12.40;99.90
20829;DHT22;10575;50.124;8.582;2022-10-31T01:13:31;12.50;99.90
20829;DHT22;10575;50.124;8.582;2022-10-31T01:15:57;12.50;99.90
20829;DHT22;10575;50.124;8.582;2022-10-31T01:18:23;12.50;99.90
20829;DHT22;10575;50.124;8.582;2022-10-31T01:21:04;12.50;99.90
20829;DHT22;10575;50.124;8.582;2022-10-31T01:23:30;12.40;99.90
20829;DHT22;10575;50.124;8.582;2022-10-31T01:28:37;12.30;99.90
20829;DHT22;10575;50.124;8.582;2022-10-31T01:31:05;12.20;99.90
20829;DHT22;10575;50.124;8.582;2022-10-31T01:33:31;12.30;99.90
20829;DHT22;10575;50.124;8.582;2022-10-31T01:35:57;12.20;99.90
20829;DHT22;10575;50.124;8.582;2022-10-31T01:38:23;12.20;99.90
20829;DHT22;10575;50.124;8.582;2022-10-31T01:40:49;12.20;99.90
20829;DHT22;10575;50.124;8.582;2022-10-31T01:43:15;12.10;99.90
20829;DHT22;10575;50.124;8.582;2022-10-31T01:45:47;12.10;99.90
20829;DHT22;10575;50.124;8.582;2022-10-31T01:48:17;12.10;99.90
20829;DHT22;10575;50.124;8.582;2022-10-31T01:50:45;12.00;99.90
20829;DHT22;10575;50.124;8.582;2022-10-31T01:53:13;12.00;99.90
20829;DHT22;10575;50.124;8.582;2022-10-31T01:55:44;11.90;99.90
20829;DHT22;10575;50.124;8.582;2022-10-31T01:58:22;11.90;99.90
20829;DHT22;10575;50.124;8.582;2022-10-31T02:00:53;12.00;99.90
20829;DHT22;10575;50.124;8.582;2022-10-31T02:03:22;12.00;99.90
20829;DHT22;10575;50.124;8.582;2022-10-31T02:05:49;12.00;99.90
20829;DHT22;10575;50.124;8.582;2022-10-31T02:08:19;12.00;99.90
20829;DHT22;10575;50.124;8.582;2022-10-31T02:10:45;12.00;99.90
20829;DHT22;10575;50.124;8.582;2022-10-31T02:13:11;11.90;99.90
20829;DHT22;10575;50.124;8.582;2022-10-31T02:15:39;12.00;99.90
20829;DHT22;10575;50.124;8.582;2022-10-31T02:18:05;12.00;99.90
20829;DHT22;10575;50.124;8.582;2022-10-31T02:29:31;12.10;99.90
20829;DHT22;10575;50.124;8.582;2022-10-31T02:35:21;12.20;99.90
20829;DHT22;10575;50.124;8.582;2022-10-31T02:46:08;11.80;99.90
20829;DHT22;10575;50.124;8.582;2022-10-31T02:48:38;11.70;99.90
20829;DHT22;10575;50.124;8.582;2022-10-31T02:51:05;11.60;99.90
20829;DHT22;10575;50.124;8.582;2022-10-31T02:53:35;11.60;99.90
20829;DHT22;10575;50.124;8.582;2022-10-31T02:56:08;11.60;99.90
20829;DHT22;10575;50.124;8.582;2022-10-31T02:58:40;11.60;99.90
20829;DHT22;10575;50.124;8.582;2022-10-31T03:06:41;11.70;99.90
20829;DHT22;10575;50.124;8.582;2022-10-31T03:12:07;11.60;99.90
20829;DHT22;10575;50.124;8.582;2022-10-31T03:14:42;11.50;99.90
20829;DHT22;10575;50.124;8.582;2022-10-31T03:17:14;11.50;99.90
20829;DHT22;10575;50.124;8.582;2022-10-31T03:19:47;11.50;99.90
20829;DHT22;10575;50.124;8.582;2022-10-31T03:22:21;11.40;99.90
20829;DHT22;10575;50.124;8.582;2022-10-31T03:24:48;11.40;99.90
20829;DHT22;10575;50.124;8.582;2022-10-31T03:27:22;11.40;99.90
20829;DHT22;10575;50.124;8.582;2022-10-31T03:29:50;11.40;99.90
20829;DHT22;10575;50.124;8.582;2022-10-31T03:32:22;11.40;99.90
20829;DHT22;10575;50.124;8.582;2022-10-31T03:34:51;11.40;99.90
20829;DHT22;10575;50.124;8.582;2022-10-31T03:37:19;11.40;99.90
20829;DHT22;10575;50.124;8.582;2022-10-31T03:39:47;11.40;99.90
20829;DHT22;10575;50.124;8.582;2022-10-31T03:42:18;11.40;99.90
20829;DHT22;10575;50.124;8.582;2022-10-31T03:45:06;11.40;99.90
20829;DHT22;10575;50.124;8.582;2022-10-31T03:47:34;11.50;99.90
20829;DHT22;10575;50.124;8.582;2022-10-31T03:50:01;11.60;99.90
20829;DHT22;10575;50.124;8.582;2022-10-31T03:52:50;11.60;99.90
20829;DHT22;10575;50.124;8.582;2022-10-31T03:55:19;11.70;99.90
20829;DHT22;10575;50.124;8.582;2022-10-31T03:57:53;11.60;99.90
20829;DHT22;10575;50.124;8.582;2022-10-31T04:00:21;11.60;99.90
20829;DHT22;10575;50.124;8.582;2022-10-31T04:03:06;11.60;99.90
20829;DHT22;10575;50.124;8.582;2022-10-31T04:05:32;11.50;99.90
20829;DHT22;10575;50.124;8.582;2022-10-31T04:08:01;11.60;99.90
20829;DHT22;10575;50.124;8.582;2022-10-31T04:10:28;11.70;99.90
20829;DHT22;10575;50.124;8.582;2022-10-31T04:13:01;11.80;99.90
20829;DHT22;10575;50.124;8.582;2022-10-31T04:15:28;11.80;99.90
20829;DHT22;10575;50.124;8.582;2022-10-31T04:17:56;11.60;99.90
20829;DHT22;10575;50.124;8.582;2022-10-31T04:20:37;11.60;99.90
20829;DHT22;10575;50.124;8.582;2022-10-31T04:23:03;11.60;99.90
20829;DHT22;10575;50.124;8.582;2022-10-31T04:25:29;11.50;99.90
20829;DHT22;10575;50.124;8.582;2022-10-31T04:27:55;11.40;99.90
20829;DHT22;10575;50.124;8.582;2022-10-31T04:30:20;11.40;99.90
20829;DHT22;10575;50.124;8.582;2022-10-31T04:32:46;11.40;99.90
20829;DHT22;10575;50.124;8.582;2022-10-31T04:35:12;11.50;99.90
20829;DHT22;10575;50.124;8.582;2022-10-31T04:37:38;11.60;99.90
20829;DHT22;10575;50.124;8.582;2022-10-31T04:40:04;11.60;99.90
20829;DHT22;10575;50.124;8.582;2022-10-31T04:42:30;11.60;99.90
20829;DHT22;10575;50.124;8.582;2022-10-31T04:44:56;11.60;99.90
20829;DHT22;10575;50.124;8.582;2022-10-31T04:47:21;11.50;99.90
20829;DHT22;10575;50.124;8.582;2022-10-31T04:49:47;11.50;99.90
20829;DHT22;10575;50.124;8.582;2022-10-31T04:52:13;11.40;99.90
20829;DHT22;10575;50.124;8.582;2022-10-31T04:54:39;11.40;99.90
20829;DHT22;10575;50.124;8.582;2022-10-31T04:57:04;11.30;99.90
20829;DHT22;10575;50.124;8.582;2022-10-31T04:59:30;11.20;99.90
20829;DHT22;10575;50.124;8.582;2022-10-31T05:01:55;11.20;99.90
20829;DHT22;10575;50.124;8.582;2022-10-31T05:04:21;11.20;99.90
20829;DHT22;10575;50.124;8.582;2022-10-31T05:06:46;11.10;99.90
20829;DHT22;10575;50.124;8.582;2022-10-31T05:09:12;11.10;99.90
20829;DHT22;10575;50.124;8.582;2022-10-31T05:11:37;11.10;99.90
20829;DHT22;10575;50.124;8.582;2022-10-31T05:14:03;11.10;99.90
20829;DHT22;10575;50.124;8.582;2022-10-31T05:16:28;11.10;99.90
20829;DHT22;10575;50.124;8.582;2022-10-31T05:18:54;11.10;99.90
20829;DHT22;10575;50.124;8.582;2022-10-31T05:21:19;11.10;99.90
20829;DHT22;10575;50.124;8.582;2022-10-31T05:23:45;11.10;99.90
20829;DHT22;10575;50.124;8.582;2022-10-31T05:26:10;11.10;99.90
20829;DHT22;10575;50.124;8.582;2022-10-31T05:28:36;11.10;99.90
20829;DHT22;10575;50.124;8.582;2022-10-31T05:31:02;11.00;99.90
20829;DHT22;10575;50.124;8.582;2022-10-31T05:33:27;11.00;99.90
20829;DHT22;10575;50.124;8.582;2022-10-31T05:35:53;11.00;99.90
20829;DHT22;10575;50.124;8.582;2022-10-31T05:38:18;11.00;99.90
20829;DHT22;10575;50.124;8.582;2022-10-31T05:40:44;11.00;99.90
20829;DHT22;10575;50.124;8.582;2022-10-31T05:43:09;11.00;99.90
20829;DHT22;10575;50.124;8.582;2022-10-31T05:45:35;11.00;99.90
20829;DHT22;10575;50.124;8.582;2022-10-31T05:48:01;11.00;99.90
20829;DHT22;10575;50.124;8.582;2022-10-31T05:50:29;11.10;99.90
20829;DHT22;10575;50.124;8.582;2022-10-31T05:53:00;11.10;99.90
20829;DHT22;10575;50.124;8.582;2022-10-31T05:55:27;11.10;99.90
20829;DHT22;10575;50.124;8.582;2022-10-31T05:57:53;11.20;99.90
20829;DHT22;10575;50.124;8.582;2022-10-31T06:00:20;11.30;99.90
20829;DHT22;10575;50.124;8.582;2022-10-31T06:02:46;11.40;99.90
20829;DHT22;10575;50.124;8.582;2022-10-31T06:05:12;11.40;99.90
20829;DHT22;10575;50.124;8.582;2022-10-31T06:07:38;11.40;99.90
20829;DHT22;10575;50.124;8.582;2022-10-31T06:10:05;11.40;99.90
20829;DHT22;10575;50.124;8.582;2022-10-31T06:12:31;11.40;99.90
20829;DHT22;10575;50.124;8.582;2022-10-31T06:14:57;11.50;99.90
20829;DHT22;10575;50.124;8.582;2022-10-31T06:17:22;11.60;99.90
20829;DHT22;10575;50.124;8.582;2022-10-31T06:19:48;11.70;99.90
20829;DHT22;10575;50.124;8.582;2022-10-31T06:22:13;11.60;99.90
20829;DHT22;10575;50.124;8.582;2022-10-31T06:24:39;11.70;99.90
20829;DHT22;10575;50.124;8.582;2022-10-31T06:27:05;11.80;99.90
20829;DHT22;10575;50.124;8.582;2022-10-31T06:29:31;11.90;99.90
20829;DHT22;10575;50.124;8.582;2022-10-31T06:31:56;11.90;99.90
20829;DHT22;10575;50.124;8.582;2022-10-31T06:34:22;12.00;99.90
20829;DHT22;10575;50.124;8.582;2022-10-31T06:36:48;12.10;99.90
20829;DHT22;10575;50.124;8.582;2022-10-31T06:39:14;12.00;99.90
20829;DHT22;10575;50.124;8.582;2022-10-31T06:41:39;12.10;99.90
20829;DHT22;10575;50.124;8.582;2022-10-31T06:44:07;12.10;99.90
20829;DHT22;10575;50.124;8.582;2022-10-31T06:46:33;12.20;99.90
20829;DHT22;10575;50.124;8.582;2022-10-31T06:48:59;12.30;99.90
20829;DHT22;10575;50.124;8.582;2022-10-31T06:51:24;12.40;99.90
20829;DHT22;10575;50.124;8.582;2022-10-31T06:53:50;12.50;99.90
20829;DHT22;10575;50.124;8.582;2022-10-31T06:56:15;12.60;99.90
20829;DHT22;10575;50.124;8.582;2022-10-31T06:58:41;12.80;99.90
20829;DHT22;10575;50.124;8.582;2022-10-31T07:01:06;12.80;99.90
20829;DHT22;10575;50.124;8.582;2022-10-31T07:03:32;12.90;99.90
20829;DHT22;10575;50.124;8.582;2022-10-31T07:05:58;12.90;99.90
20829;DHT22;10575;50.124;8.582;2022-10-31T07:08:24;13.00;99.90
20829;DHT22;10575;50.124;8.582;2022-10-31T07:10:56;13.00;99.90
20829;DHT22;10575;50.124;8.582;2022-10-31T07:13:22;12.90;99.90
20829;DHT22;10575;50.124;8.582;2022-10-31T07:15:52;12.70;99.90
20829;DHT22;10575;50.124;8.582;2022-10-31T07:18:18;12.60;99.90
20829;DHT22;10575;50.124;8.582;2022-10-31T07:20:44;12.50;99.90
20829;DHT22;10575;50.124;8.582;2022-10-31T07:23:10;12.60;99.90
20829;DHT22;10575;50.124;8.582;2022-10-31T07:25:37;12.70;99.90
20829;DHT22;10575;50.124;8.582;2022-10-31T07:28:03;12.70;99.90
20829;DHT22;10575;50.124;8.582;2022-10-31T07:30:28;12.70;99.90
20829;DHT22;10575;50.124;8.582;2022-10-31T07:32:54;12.60;99.90
20829;DHT22;10575;50.124;8.582;2022-10-31T07:35:30;12.70;99.90
20829;DHT22;10575;50.124;8.582;2022-10-31T07:37:56;12.80;99.90
20829;DHT22;10575;50.124;8.582;2022-10-31T07:40:22;12.90;99.90
20829;DHT22;10575;50.124;8.582;2022-10-31T07:42:50;13.10;99.90
20829;DHT22;10575;50.124;8.582;2022-10-31T07:45:18;13.20;99.90
20829;DHT22;10575;50.124;8.582;2022-10-31T07:47:48;13.40;99.90
20829;DHT22;10575;50.124;8.582;2022-10-31T07:50:17;13.60;99.90
20829;DHT22;10575;50.124;8.582;2022-10-31T07:52:43;13.90;99.90
20829;DHT22;10575;50.124;8.582;2022-10-31T07:55:09;14.20;99.90
20829;DHT22;10575;50.124;8.582;2022-10-31T07:57:34;14.40;99.90
20829;DHT22;10575;50.124;8.582;2022-10-31T08:00:05;14.70;99.90
20829;DHT22;10575;50.124;8.582;2022-10-31T08:02:31;14.80;99.90
20829;DHT22;10575;50.124;8.582;2022-10-31T08:04:57;14.80;99.90
20829;DHT22;10575;50.124;8.582;2022-10-31T08:07:22;14.90;99.90
20829;DHT22;10575;50.124;8.582;2022-10-31T08:09:48;15.00;99.90
20829;DHT22;10575;50.124;8.582;2022-10-31T08:12:14;15.10;99.90
20829;DHT22;10575;50.124;8.582;2022-10-31T08:14:39;15.20;99.90
20829;DHT22;10575;50.124;8.582;2022-10-31T08:17:05;15.30;99.90
20829;DHT22;10575;50.124;8.582;2022-10-31T08:19:30;15.20;99.90
20829;DHT22;10575;50.124;8.582;2022-10-31T08:21:56;15.20;99.90
20829;DHT22;10575;50.124;8.582;2022-10-31T08:24:22;15.10;99.90
20829;DHT22;10575;50.124;8.582;2022-10-31T08:26:47;15.00;99.90
20829;DHT22;10575;50.124;8.582;2022-10-31T08:29:13;14.90;99.90
20829;DHT22;10575;50.124;8.582;2022-10-31T08:31:40;14.80;99.90
20829;DHT22;10575;50.124;8.582;2022-10-31T08:34:05;14.80;99.90
20829;DHT22;10575;50.124;8.582;2022-10-31T08:36:32;14.90;99.90
20829;DHT22;10575;50.124;8.582;2022-10-31T08:38:58;14.90;99.90
20829;DHT22;10575;50.124;8.582;2022-10-31T08:41:23;14.90;99.90
20829;DHT22;10575;50.124;8.582;2022-10-31T08:43:49;14.90;99.90
20829;DHT22;10575;50.124;8.582;2022-10-31T08:46:15;15.10;99.90
20829;DHT22;10575;50.124;8.582;2022-10-31T08:48:40;15.10;99.90
20829;DHT22;10575;50.124;8.582;2022-10-31T08:51:06;15.20;99.90
20829;DHT22;10575;50.124;8.582;2022-10-31T08:53:31;15.30;99.90
20829;DHT22;10575;50.124;8.582;2022-10-31T08:55:57;15.30;99.90
20829;DHT22;10575;50.124;8.582;2022-10-31T08:58:24;15.40;99.90
20829;DHT22;10575;50.124;8.582;2022-10-31T09:00:52;15.30;99.90
20829;DHT22;10575;50.124;8.582;2022-10-31T09:03:26;15.20;99.90
20829;DHT22;10575;50.124;8.582;2022-10-31T09:05:56;15.30;99.90
20829;DHT22;10575;50.124;8.582;2022-10-31T09:08:22;15.30;99.90
20829;DHT22;10575;50.124;8.582;2022-10-31T09:10:47;15.50;99.90
20829;DHT22;10575;50.124;8.582;2022-10-31T09:13:16;15.40;99.90
20829;DHT22;10575;50.124;8.582;2022-10-31T09:15:43;15.50;99.90
20829;DHT22;10575;50.124;8.582;2022-10-31T09:18:10;15.50;99.90
20829;DHT22;10575;50.124;8.582;2022-10-31T09:20:37;15.50;99.90
20829;DHT22;10575;50.124;8.582;2022-10-31T09:23:17;15.40;99.90
20829;DHT22;10575;50.124;8.582;2022-10-31T09:25:44;15.20;99.90
20829;DHT22;10575;50.124;8.582;2022-10-31T09:28:12;15.10;99.90
20829;DHT22;10575;50.124;8.582;2022-10-31T09:30:38;15.00;99.90
20829;DHT22;10575;50.124;8.582;2022-10-31T09:33:10;15.00;99.90
20829;DHT22;10575;50.124;8.582;2022-10-31T09:35:36;15.00;99.90
20829;DHT22;10575;50.124;8.582;2022-10-31T09:38:05;15.00;99.90
20829;DHT22;10575;50.124;8.582;2022-10-31T09:40:43;15.00;99.90
20829;DHT22;10575;50.124;8.582;2022-10-31T09:43:33;15.20;99.90
20829;DHT22;10575;50.124;8.582;2022-10-31T09:46:07;15.40;99.90
20829;DHT22;10575;50.124;8.582;2022-10-31T09:48:53;15.60;99.90
20829;DHT22;10575;50.124;8.582;2022-10-31T09:51:33;15.90;99.90
20829;DHT22;10575;50.124;8.582;2022-10-31T09:54:21;16.10;99.90
20829;DHT22;10575;50.124;8.582;2022-10-31T09:56:48;16.30;99.90
20829;DHT22;10575;50.124;8.582;2022-10-31T09:59:28;16.40;99.90
20829;DHT22;10575;50.124;8.582;2022-10-31T10:02:20;16.60;99.90
20829;DHT22;10575;50.124;8.582;2022-10-31T10:04:56;16.70;99.90
20829;DHT22;10575;50.124;8.582;2022-10-31T10:07:44;16.90;99.90
20829;DHT22;10575;50.124;8.582;2022-10-31T10:10:55;16.90;99.90
20829;DHT22;10575;50.124;8.582;2022-10-31T10:13:32;17.00;99.90
20829;DHT22;10575;50.124;8.582;2022-10-31T10:24:41;17.10;99.90
20829;DHT22;10575;50.124;8.582;2022-10-31T10:27:20;17.20;99.90
20829;DHT22;10575;50.124;8.582;2022-10-31T10:32:27;17.50;99.90
20829;DHT22;10575;50.124;8.582;2022-10-31T10:35:10;17.50;99.90
20829;DHT22;10575;50.124;8.582;2022-10-31T10:37:39;17.60;99.90
20829;DHT22;10575;50.124;8.582;2022-10-31T10:40:23;17.40;99.90
20829;DHT22;10575;50.124;8.582;2022-10-31T10:54:59;17.50;99.90
20829;DHT22;10575;50.124;8.582;2022-10-31T10:57:49;17.60;99.90
20829;DHT22;10575;50.124;8.582;2022-10-31T11:00:40;17.70;99.90
20829;DHT22;10575;50.124;8.582;2022-10-31T11:03:07;17.70;99.90
20829;DHT22;10575;50.124;8.582;2022-10-31T11:05:54;17.80;99.90
20829;DHT22;10575;50.124;8.582;2022-10-31T11:08:31;17.80;99.90
20829;DHT22;10575;50.124;8.582;2022-10-31T11:11:05;17.90;99.90
20829;DHT22;10575;50.124;8.582;2022-10-31T11:13:34;17.90;99.90
20829;DHT22;10575;50.124;8.582;2022-10-31T11:16:45;17.90;99.90
20829;DHT22;10575;50.124;8.582;2022-10-31T11:18:50;17.70;99.90
20829;DHT22;10575;50.124;8.582;2022-10-31T11:21:29;17.90;99.90
20829;DHT22;10575;50.124;8.582;2022-10-31T11:26:43;18.20;99.90
20829;DHT22;10575;50.124;8.582;2022-10-31T11:29:27;18.10;99.90
20829;DHT22;10575;50.124;8.582;2022-10-31T11:31:55;18.10;99.90
20829;DHT22;10575;50.124;8.582;2022-10-31T11:34:42;18.10;99.90
20829;DHT22;10575;50.124;8.582;2022-10-31T11:37:10;17.90;99.90
20829;DHT22;10575;50.124;8.582;2022-10-31T11:39:41;17.90;99.90
20829;DHT22;10575;50.124;8.582;2022-10-31T11:42:08;17.90;99.90
20829;DHT22;10575;50.124;8.582;2022-10-31T11:44:34;18.00;99.90
20829;DHT22;10575;50.124;8.582;2022-10-31T11:47:02;18.10;99.90
20829;DHT22;10575;50.124;8.582;2022-10-31T11:49:38;18.10;99.90
20829;DHT22;10575;50.124;8.582;2022-10-31T11:52:08;18.10;99.90
20829;DHT22;10575;50.124;8.582;2022-10-31T11:54:58;18.00;99.90
20829;DHT22;10575;50.124;8.582;2022-10-31T11:57:32;18.10;99.90
20829;DHT22;10575;50.124;8.582;2022-10-31T12:00:03;18.10;99.90
20829;DHT22;10575;50.124;8.582;2022-10-31T12:02:29;18.20;99.90
20829;DHT22;10575;50.124;8.582;2022-10-31T12:05:02;18.20;99.90
20829;DHT22;10575;50.124;8.582;2022-10-31T12:07:30;18.30;99.90
20829;DHT22;10575;50.124;8.582;2022-10-31T12:09:55;18.40;99.90
20829;DHT22;10575;50.124;8.582;2022-10-31T12:12:36;18.40;99.90
20829;DHT22;10575;50.124;8.582;2022-10-31T12:18:11;18.50;99.90
20829;DHT22;10575;50.124;8.582;2022-10-31T12:29:17;18.40;99.90
20829;DHT22;10575;50.124;8.582;2022-10-31T12:32:05;18.40;99.90
20829;DHT22;10575;50.124;8.582;2022-10-31T12:38:01;18.60;99.90
20829;DHT22;10575;50.124;8.582;2022-10-31T12:45:55;18.60;99.90
20829;DHT22;10575;50.124;8.582;2022-10-31T12:51:33;18.60;99.90
20829;DHT22;10575;50.124;8.582;2022-10-31T12:59:40;18.70;99.90
20829;DHT22;10575;50.124;8.582;2022-10-31T13:02:24;18.70;99.90
20829;DHT22;10575;50.124;8.582;2022-10-31T13:05:00;18.60;99.90
20829;DHT22;10575;50.124;8.582;2022-10-31T13:07:36;18.70;99.90
20829;DHT22;10575;50.124;8.582;2022-10-31T13:12:54;18.70;99.90
20829;DHT22;10575;50.124;8.582;2022-10-31T13:15:27;18.70;99.90
20829;DHT22;10575;50.124;8.582;2022-10-31T13:17:59;18.70;99.90
20829;DHT22;10575;50.124;8.582;2022-10-31T13:20:43;18.60;99.90
20829;DHT22;10575;50.124;8.582;2022-10-31T13:23:28;18.70;99.90
20829;DHT22;10575;50.124;8.582;2022-10-31T13:25:56;18.50;99.90
20829;DHT22;10575;50.124;8.582;2022-10-31T13:30:54;18.30;99.90
20829;DHT22;10575;50.124;8.582;2022-10-31T13:33:28;18.20;99.90
20829;DHT22;10575;50.124;8.582;2022-10-31T13:36:14;18.20;99.90
20829;DHT22;10575;50.124;8.582;2022-10-31T13:41:50;18.10;99.90
20829;DHT22;10575;50.124;8.582;2022-10-31T13:44:19;18.20;99.90
20829;DHT22;10575;50.124;8.582;2022-10-31T13:46:46;18.20;99.90
20829;DHT22;10575;50.124;8.582;2022-10-31T13:54:36;18.40;99.90
20829;DHT22;10575;50.124;8.582;2022-10-31T13:57:07;18.50;99.90
20829;DHT22;10575;50.124;8.582;2022-10-31T13:59:37;18.50;99.90
20829;DHT22;10575;50.124;8.582;2022-10-31T14:02:14;18.40;99.90
20829;DHT22;10575;50.124;8.582;2022-10-31T14:04:48;18.20;99.90
20829;DHT22;10575;50.124;8.582;2022-10-31T14:07:17;18.20;99.90
20829;DHT22;10575;50.124;8.582;2022-10-31T14:09:55;18.10;99.90
20829;DHT22;10575;50.124;8.582;2022-10-31T14:14:56;18.10;99.90
20829;DHT22;10575;50.124;8.582;2022-10-31T14:17:26;18.10;99.90
20829;DHT22;10575;50.124;8.582;2022-10-31T14:22:39;18.10;99.90
20829;DHT22;10575;50.124;8.582;2022-10-31T14:27:52;17.90;99.90
20829;DHT22;10575;50.124;8.582;2022-10-31T14:30:21;17.90;99.90
20829;DHT22;10575;50.124;8.582;2022-10-31T14:33:16;17.90;99.90
20829;DHT22;10575;50.124;8.582;2022-10-31T14:36:07;17.80;99.90
20829;DHT22;10575;50.124;8.582;2022-10-31T14:52:28;18.10;99.90
20829;DHT22;10575;50.124;8.582;2022-10-31T14:54:55;18.20;99.90
20829;DHT22;10575;50.124;8.582;2022-10-31T14:57:25;18.30;99.90
20829;DHT22;10575;50.124;8.582;2022-10-31T15:00:00;18.40;99.90
20829;DHT22;10575;50.124;8.582;2022-10-31T15:05:26;18.50;99.90
20829;DHT22;10575;50.124;8.582;2022-10-31T15:07:57;18.50;99.90
20829;DHT22;10575;50.124;8.582;2022-10-31T15:10:27;18.50;99.90
20829;DHT22;10575;50.124;8.582;2022-10-31T15:12:55;18.50;99.90
20829;DHT22;10575;50.124;8.582;2022-10-31T15:15:25;18.40;99.90
20829;DHT22;10575;50.124;8.582;2022-10-31T15:17:59;18.30;99.90
20829;DHT22;10575;50.124;8.582;2022-10-31T15:20:31;18.10;99.90
20829;DHT22;10575;50.124;8.582;2022-10-31T15:23:01;17.90;99.90
20829;DHT22;10575;50.124;8.582;2022-10-31T15:25:30;17.80;99.90
20829;DHT22;10575;50.124;8.582;2022-10-31T15:27:57;17.70;99.90
20829;DHT22;10575;50.124;8.582;2022-10-31T15:30:25;17.60;99.90
20829;DHT22;10575;50.124;8.582;2022-10-31T15:32:51;17.40;99.90
20829;DHT22;10575;50.124;8.582;2022-10-31T15:35:23;17.30;99.90
20829;DHT22;10575;50.124;8.582;2022-10-31T15:37:52;17.20;99.90
20829;DHT22;10575;50.124;8.582;2022-10-31T15:40:20;17.10;99.90
20829;DHT22;10575;50.124;8.582;2022-10-31T15:43:00;17.00;99.90
20829;DHT22;10575;50.124;8.582;2022-10-31T15:45:27;16.90;99.90
20829;DHT22;10575;50.124;8.582;2022-10-31T15:50:49;16.90;99.90
20829;DHT22;10575;50.124;8.582;2022-10-31T15:56:05;16.80;99.90
20829;DHT22;10575;50.124;8.582;2022-10-31T15:58:33;16.80;99.90
20829;DHT22;10575;50.124;8.582;2022-10-31T16:01:06;16.80;99.90
20829;DHT22;10575;50.124;8.582;2022-10-31T16:03:44;16.80;99.90
20829;DHT22;10575;50.124;8.582;2022-10-31T16:06:21;16.70;99.90
20829;DHT22;10575;50.124;8.582;2022-10-31T16:08:48;16.70;99.90
20829;DHT22;10575;50.124;8.582;2022-10-31T16:13:59;16.60;99.90
20829;DHT22;10575;50.124;8.582;2022-10-31T16:16:26;16.60;99.90
20829;DHT22;10575;50.124;8.582;2022-10-31T16:18:53;16.50;99.90
20829;DHT22;10575;50.124;8.582;2022-10-31T16:21:31;16.60;99.90
20829;DHT22;10575;50.124;8.582;2022-10-31T16:24:01;16.50;99.90
20829;DHT22;10575;50.124;8.582;2022-10-31T16:26:28;16.50;99.90
20829;DHT22;10575;50.124;8.582;2022-10-31T16:28:56;16.40;99.90
20829;DHT22;10575;50.124;8.582;2022-10-31T16:31:35;16.40;99.90
20829;DHT22;10575;50.124;8.582;2022-10-31T16:34:19;16.40;99.90
20829;DHT22;10575;50.124;8.582;2022-10-31T16:36:45;16.40;99.90
20829;DHT22;10575;50.124;8.582;2022-10-31T16:39:11;16.40;99.90
20829;DHT22;10575;50.124;8.582;2022-10-31T16:41:43;16.30;99.90
20829;DHT22;10575;50.124;8.582;2022-10-31T16:44:21;16.30;99.90
20829;DHT22;10575;50.124;8.582;2022-10-31T16:46:47;16.30;99.90
20829;DHT22;10575;50.124;8.582;2022-10-31T16:49:13;16.40;99.90
20829;DHT22;10575;50.124;8.582;2022-10-31T16:51:41;16.40;99.90
20829;DHT22;10575;50.124;8.582;2022-10-31T16:54:06;16.40;99.90
20829;DHT22;10575;50.124;8.582;2022-10-31T16:56:36;16.30;99.90
20829;DHT22;10575;50.124;8.582;2022-10-31T16:59:04;16.30;99.90
20829;DHT22;10575;50.124;8.582;2022-10-31T17:01:31;16.20;99.90
20829;DHT22;10575;50.124;8.582;2022-10-31T17:03:56;16.10;99.90
20829;DHT22;10575;50.124;8.582;2022-10-31T17:06:22;16.00;99.90
20829;DHT22;10575;50.124;8.582;2022-10-31T17:08:47;15.90;99.90
20829;DHT22;10575;50.124;8.582;2022-10-31T17:11:22;15.90;99.90
20829;DHT22;10575;50.124;8.582;2022-10-31T17:13:49;16.00;99.90
20829;DHT22;10575;50.124;8.582;2022-10-31T17:16:14;16.00;99.90
20829;DHT22;10575;50.124;8.582;2022-10-31T17:18:40;16.00;99.90
20829;DHT22;10575;50.124;8.582;2022-10-31T17:21:18;16.00;99.90
20829;DHT22;10575;50.124;8.582;2022-10-31T17:23:45;15.90;99.90
20829;DHT22;10575;50.124;8.582;2022-10-31T17:26:11;15.90;99.90
20829;DHT22;10575;50.124;8.582;2022-10-31T17:28:36;15.90;99.90
20829;DHT22;10575;50.124;8.582;2022-10-31T17:31:02;15.90;99.90
20829;DHT22;10575;50.124;8.582;2022-10-31T17:33:27;15.90;99.90
20829;DHT22;10575;50.124;8.582;2022-10-31T17:35:53;15.90;99.90
20829;DHT22;10575;50.124;8.582;2022-10-31T17:38:19;16.00;99.90
20829;DHT22;10575;50.124;8.582;2022-10-31T17:40:44;16.00;99.90
20829;DHT22;10575;50.124;8.582;2022-10-31T17:43:10;15.90;99.90
20829;DHT22;10575;50.124;8.582;2022-10-31T17:45:40;16.00;99.90
20829;DHT22;10575;50.124;8.582;2022-10-31T17:48:08;15.90;99.90
20829;DHT22;10575;50.124;8.582;2022-10-31T17:50:35;15.90;99.90
20829;DHT22;10575;50.124;8.582;2022-10-31T17:53:00;15.80;99.90
20829;DHT22;10575;50.124;8.582;2022-10-31T17:55:26;15.60;99.90
20829;DHT22;10575;50.124;8.582;2022-10-31T17:57:51;15.50;99.90
20829;DHT22;10575;50.124;8.582;2022-10-31T18:00:19;15.40;99.90